Terminal Aerodrome Forecast
Issued by NWS Twin Cities, MN

Home | Current Version | Previous Version | Text Only | Print | Product List | Glossary On
Versions: 1 2 3 4 5 6 7 8 9 10 11 12 13 14 15 16 17 18 19 20 21 22 23 24 25 26 27 28 29 30 31 32 33 34 35 36 37 38 39 40 41 42 43 44 45 46 47 48 49 50
000
FTUS43 KMPX 170246 AAA
TAFMSP
TAF AMD
KMSP 170246Z 1703/1806 14005KT P6SM FEW120
     FM171400 15007KT P6SM BKN070 OVC120
     FM171800 16013G20KT P6SM SCT050 BKN100 PROB30 1722/1804 3SM
      TSRA OVC035CB=

USA.gov is the U.S. government's official web portal to all federal, state and local government web resources and services.